sensor_id;sensor_type;location;lat;lon;timestamp;temperature;humidity
44513;DHT22;30219;50.588;9.504;2023-02-13T00:02:05;5.80;99.90
44513;DHT22;30219;50.588;9.504;2023-02-13T00:04:31;5.70;99.90
44513;DHT22;30219;50.588;9.504;2023-02-13T00:06:56;5.70;99.90
44513;DHT22;30219;50.588;9.504;2023-02-13T00:09:22;5.60;99.90
44513;DHT22;30219;50.588;9.504;2023-02-13T00:11:47;5.70;99.90
44513;DHT22;30219;50.588;9.504;2023-02-13T00:14:13;5.60;99.90
44513;DHT22;30219;50.588;9.504;2023-02-13T00:16:38;5.60;99.90
44513;DHT22;30219;50.588;9.504;2023-02-13T00:19:03;5.50;99.90
44513;DHT22;30219;50.588;9.504;2023-02-13T00:21:29;5.50;99.90
44513;DHT22;30219;50.588;9.504;2023-02-13T00:23:54;5.60;99.90
44513;DHT22;30219;50.588;9.504;2023-02-13T00:26:20;5.60;99.90
44513;DHT22;30219;50.588;9.504;2023-02-13T00:28:45;5.70;99.90
44513;DHT22;30219;50.588;9.504;2023-02-13T00:31:12;5.60;99.90
44513;DHT22;30219;50.588;9.504;2023-02-13T00:33:38;5.60;99.90
44513;DHT22;30219;50.588;9.504;2023-02-13T00:38:29;5.70;99.90
44513;DHT22;30219;50.588;9.504;2023-02-13T00:40:55;5.80;99.90
44513;DHT22;30219;50.588;9.504;2023-02-13T00:43:20;5.70;99.90
44513;DHT22;30219;50.588;9.504;2023-02-13T00:45:46;5.70;99.90
44513;DHT22;30219;50.588;9.504;2023-02-13T00:48:11;5.70;99.90
44513;DHT22;30219;50.588;9.504;2023-02-13T00:50:37;5.60;99.90
44513;DHT22;30219;50.588;9.504;2023-02-13T00:53:02;5.70;99.90
44513;DHT22;30219;50.588;9.504;2023-02-13T00:55:28;5.80;99.90
44513;DHT22;30219;50.588;9.504;2023-02-13T00:57:53;5.70;99.90
44513;DHT22;30219;50.588;9.504;2023-02-13T01:00:19;5.70;99.90
44513;DHT22;30219;50.588;9.504;2023-02-13T01:02:44;5.60;99.90
44513;DHT22;30219;50.588;9.504;2023-02-13T01:05:10;5.60;99.90
44513;DHT22;30219;50.588;9.504;2023-02-13T01:07:35;5.50;99.90
44513;DHT22;30219;50.588;9.504;2023-02-13T01:10:01;5.50;99.90
44513;DHT22;30219;50.588;9.504;2023-02-13T01:12:26;5.50;99.90
44513;DHT22;30219;50.588;9.504;2023-02-13T01:14:51;5.50;99.90
44513;DHT22;30219;50.588;9.504;2023-02-13T01:17:17;5.50;99.90
44513;DHT22;30219;50.588;9.504;2023-02-13T01:19:42;5.60;99.90
44513;DHT22;30219;50.588;9.504;2023-02-13T01:22:08;5.60;99.90
44513;DHT22;30219;50.588;9.504;2023-02-13T01:24:33;5.60;99.90
44513;DHT22;30219;50.588;9.504;2023-02-13T01:26:59;5.70;99.90
44513;DHT22;30219;50.588;9.504;2023-02-13T01:29:26;5.60;99.90
44513;DHT22;30219;50.588;9.504;2023-02-13T01:31:52;5.70;99.90
44513;DHT22;30219;50.588;9.504;2023-02-13T01:34:17;5.60;99.90
44513;DHT22;30219;50.588;9.504;2023-02-13T01:36:43;5.60;99.90
44513;DHT22;30219;50.588;9.504;2023-02-13T01:39:09;5.60;99.90
44513;DHT22;30219;50.588;9.504;2023-02-13T01:41:35;5.60;99.90
44513;DHT22;30219;50.588;9.504;2023-02-13T01:44:01;5.70;99.90
44513;DHT22;30219;50.588;9.504;2023-02-13T01:46:28;5.70;99.90
44513;DHT22;30219;50.588;9.504;2023-02-13T01:48:57;5.70;99.90
44513;DHT22;30219;50.588;9.504;2023-02-13T01:51:26;5.60;99.90
44513;DHT22;30219;50.588;9.504;2023-02-13T01:56:26;5.30;99.90
44513;DHT22;30219;50.588;9.504;2023-02-13T01:58:53;5.30;99.90
44513;DHT22;30219;50.588;9.504;2023-02-13T02:01:20;5.40;99.90
44513;DHT22;30219;50.588;9.504;2023-02-13T02:03:53;5.40;99.90
44513;DHT22;30219;50.588;9.504;2023-02-13T02:06:22;5.30;99.90
44513;DHT22;30219;50.588;9.504;2023-02-13T02:08:49;5.30;99.90
44513;DHT22;30219;50.588;9.504;2023-02-13T02:14:17;5.40;99.90
44513;DHT22;30219;50.588;9.504;2023-02-13T02:16:43;5.40;99.90
44513;DHT22;30219;50.588;9.504;2023-02-13T02:19:12;5.50;99.90
44513;DHT22;30219;50.588;9.504;2023-02-13T02:21:46;5.50;99.90
44513;DHT22;30219;50.588;9.504;2023-02-13T02:27:07;5.50;99.90
44513;DHT22;30219;50.588;9.504;2023-02-13T02:37:23;5.60;99.90
44513;DHT22;30219;50.588;9.504;2023-02-13T02:45:08;5.50;99.90
44513;DHT22;30219;50.588;9.504;2023-02-13T02:58:24;5.50;99.90
44513;DHT22;30219;50.588;9.504;2023-02-13T03:01:15;5.50;99.90
44513;DHT22;30219;50.588;9.504;2023-02-13T03:04:01;5.30;99.90
44513;DHT22;30219;50.588;9.504;2023-02-13T03:06:55;5.30;99.90
44513;DHT22;30219;50.588;9.504;2023-02-13T03:09:26;5.30;99.90
44513;DHT22;30219;50.588;9.504;2023-02-13T03:12:11;5.30;99.90
44513;DHT22;30219;50.588;9.504;2023-02-13T03:14:56;5.30;99.90
44513;DHT22;30219;50.588;9.504;2023-02-13T03:17:22;5.40;99.90
44513;DHT22;30219;50.588;9.504;2023-02-13T03:28:04;5.30;99.90
44513;DHT22;30219;50.588;9.504;2023-02-13T03:36:11;5.50;99.90
44513;DHT22;30219;50.588;9.504;2023-02-13T03:41:33;5.40;99.90
44513;DHT22;30219;50.588;9.504;2023-02-13T03:44:11;5.50;99.90
44513;DHT22;30219;50.588;9.504;2023-02-13T03:46:41;5.50;99.90
44513;DHT22;30219;50.588;9.504;2023-02-13T03:49:09;5.40;99.90
44513;DHT22;30219;50.588;9.504;2023-02-13T03:57:07;5.20;99.90
44513;DHT22;30219;50.588;9.504;2023-02-13T03:59:52;5.20;99.90
44513;DHT22;30219;50.588;9.504;2023-02-13T04:02:19;5.20;99.90
44513;DHT22;30219;50.588;9.504;2023-02-13T04:04:52;5.30;99.90
44513;DHT22;30219;50.588;9.504;2023-02-13T04:07:18;5.30;99.90
44513;DHT22;30219;50.588;9.504;2023-02-13T04:09:55;5.40;99.90
44513;DHT22;30219;50.588;9.504;2023-02-13T04:12:32;5.40;99.90
44513;DHT22;30219;50.588;9.504;2023-02-13T04:15:13;5.40;99.90
44513;DHT22;30219;50.588;9.504;2023-02-13T04:17:44;5.30;99.90
44513;DHT22;30219;50.588;9.504;2023-02-13T04:20:11;5.40;99.90
44513;DHT22;30219;50.588;9.504;2023-02-13T04:22:43;5.40;99.90
44513;DHT22;30219;50.588;9.504;2023-02-13T04:25:09;5.30;99.90
44513;DHT22;30219;50.588;9.504;2023-02-13T04:27:35;5.30;99.90
44513;DHT22;30219;50.588;9.504;2023-02-13T04:30:00;5.30;99.90
44513;DHT22;30219;50.588;9.504;2023-02-13T04:32:26;5.20;99.90
44513;DHT22;30219;50.588;9.504;2023-02-13T04:34:51;5.30;99.90
44513;DHT22;30219;50.588;9.504;2023-02-13T04:37:17;5.30;99.90
44513;DHT22;30219;50.588;9.504;2023-02-13T04:39:42;5.30;99.90
44513;DHT22;30219;50.588;9.504;2023-02-13T04:42:08;5.30;99.90
44513;DHT22;30219;50.588;9.504;2023-02-13T04:44:33;5.30;99.90
44513;DHT22;30219;50.588;9.504;2023-02-13T04:46:58;5.20;99.90
44513;DHT22;30219;50.588;9.504;2023-02-13T04:49:24;5.20;99.90
44513;DHT22;30219;50.588;9.504;2023-02-13T04:51:49;5.30;99.90
44513;DHT22;30219;50.588;9.504;2023-02-13T04:54:15;5.30;99.90
44513;DHT22;30219;50.588;9.504;2023-02-13T04:56:40;5.30;99.90
44513;DHT22;30219;50.588;9.504;2023-02-13T04:59:06;5.30;99.90
44513;DHT22;30219;50.588;9.504;2023-02-13T05:01:31;5.30;99.90
44513;DHT22;30219;50.588;9.504;2023-02-13T05:03:57;5.30;99.90
44513;DHT22;30219;50.588;9.504;2023-02-13T05:06:22;5.30;99.90
44513;DHT22;30219;50.588;9.504;2023-02-13T05:08:47;5.20;99.90
44513;DHT22;30219;50.588;9.504;2023-02-13T05:11:13;5.20;99.90
44513;DHT22;30219;50.588;9.504;2023-02-13T05:13:38;5.20;99.90
44513;DHT22;30219;50.588;9.504;2023-02-13T05:16:04;5.10;99.90
44513;DHT22;30219;50.588;9.504;2023-02-13T05:18:29;5.10;99.90
44513;DHT22;30219;50.588;9.504;2023-02-13T05:20:55;5.10;99.90
44513;DHT22;30219;50.588;9.504;2023-02-13T05:23:39;5.10;99.90
44513;DHT22;30219;50.588;9.504;2023-02-13T05:26:04;5.10;99.90
44513;DHT22;30219;50.588;9.504;2023-02-13T05:28:30;5.10;99.90
44513;DHT22;30219;50.588;9.504;2023-02-13T05:31:14;4.90;99.90
44513;DHT22;30219;50.588;9.504;2023-02-13T05:33:40;4.70;99.90
44513;DHT22;30219;50.588;9.504;2023-02-13T05:36:05;4.60;99.90
44513;DHT22;30219;50.588;9.504;2023-02-13T05:38:31;4.60;99.90
44513;DHT22;30219;50.588;9.504;2023-02-13T05:40:59;4.50;99.90
44513;DHT22;30219;50.588;9.504;2023-02-13T05:43:25;4.40;99.90
44513;DHT22;30219;50.588;9.504;2023-02-13T05:45:51;4.20;99.90
44513;DHT22;30219;50.588;9.504;2023-02-13T05:48:16;4.20;99.90
44513;DHT22;30219;50.588;9.504;2023-02-13T05:50:42;4.00;99.90
44513;DHT22;30219;50.588;9.504;2023-02-13T05:53:07;3.80;99.90
44513;DHT22;30219;50.588;9.504;2023-02-13T05:55:33;3.70;99.90
44513;DHT22;30219;50.588;9.504;2023-02-13T05:57:58;3.50;99.90
44513;DHT22;30219;50.588;9.504;2023-02-13T06:00:24;3.50;99.90
44513;DHT22;30219;50.588;9.504;2023-02-13T06:02:49;3.40;99.90
44513;DHT22;30219;50.588;9.504;2023-02-13T06:05:15;3.30;99.90
44513;DHT22;30219;50.588;9.504;2023-02-13T06:07:40;3.20;99.90
44513;DHT22;30219;50.588;9.504;2023-02-13T06:10:06;3.10;99.90
44513;DHT22;30219;50.588;9.504;2023-02-13T06:12:31;3.00;99.90
44513;DHT22;30219;50.588;9.504;2023-02-13T06:14:57;2.90;99.90
44513;DHT22;30219;50.588;9.504;2023-02-13T06:17:22;2.70;99.90
44513;DHT22;30219;50.588;9.504;2023-02-13T06:19:48;2.60;99.90
44513;DHT22;30219;50.588;9.504;2023-02-13T06:22:13;2.60;99.90
44513;DHT22;30219;50.588;9.504;2023-02-13T06:24:39;2.60;99.90
44513;DHT22;30219;50.588;9.504;2023-02-13T06:27:04;2.60;99.90
44513;DHT22;30219;50.588;9.504;2023-02-13T06:29:29;2.60;99.90
44513;DHT22;30219;50.588;9.504;2023-02-13T06:31:57;2.50;99.90
44513;DHT22;30219;50.588;9.504;2023-02-13T06:34:22;2.50;99.90
44513;DHT22;30219;50.588;9.504;2023-02-13T06:36:48;2.50;99.90
44513;DHT22;30219;50.588;9.504;2023-02-13T06:39:13;2.40;99.90
44513;DHT22;30219;50.588;9.504;2023-02-13T06:41:39;2.40;99.90
44513;DHT22;30219;50.588;9.504;2023-02-13T06:44:05;2.40;99.90
44513;DHT22;30219;50.588;9.504;2023-02-13T06:46:32;2.40;99.90
44513;DHT22;30219;50.588;9.504;2023-02-13T06:48:57;2.40;99.90
44513;DHT22;30219;50.588;9.504;2023-02-13T06:51:23;2.40;99.90
44513;DHT22;30219;50.588;9.504;2023-02-13T06:53:48;2.40;99.90
44513;DHT22;30219;50.588;9.504;2023-02-13T06:56:14;2.30;99.90
44513;DHT22;30219;50.588;9.504;2023-02-13T06:58:39;2.20;99.90
44513;DHT22;30219;50.588;9.504;2023-02-13T07:01:05;2.20;99.90
44513;DHT22;30219;50.588;9.504;2023-02-13T07:03:30;2.20;99.90
44513;DHT22;30219;50.588;9.504;2023-02-13T07:05:55;2.20;99.90
44513;DHT22;30219;50.588;9.504;2023-02-13T07:08:21;2.20;99.90
44513;DHT22;30219;50.588;9.504;2023-02-13T07:10:47;2.20;99.90
44513;DHT22;30219;50.588;9.504;2023-02-13T07:13:12;2.20;99.90
44513;DHT22;30219;50.588;9.504;2023-02-13T07:15:38;2.10;99.90
44513;DHT22;30219;50.588;9.504;2023-02-13T07:18:04;2.10;99.90
44513;DHT22;30219;50.588;9.504;2023-02-13T07:20:29;2.10;99.90
44513;DHT22;30219;50.588;9.504;2023-02-13T07:22:58;2.00;99.90
44513;DHT22;30219;50.588;9.504;2023-02-13T07:25:24;2.10;99.90
44513;DHT22;30219;50.588;9.504;2023-02-13T07:27:50;2.10;99.90
44513;DHT22;30219;50.588;9.504;2023-02-13T07:30:15;2.10;99.90
44513;DHT22;30219;50.588;9.504;2023-02-13T07:32:41;2.20;99.90
44513;DHT22;30219;50.588;9.504;2023-02-13T07:35:06;2.10;99.90
44513;DHT22;30219;50.588;9.504;2023-02-13T07:37:32;2.10;99.90
44513;DHT22;30219;50.588;9.504;2023-02-13T07:39:57;2.20;99.90
44513;DHT22;30219;50.588;9.504;2023-02-13T07:42:23;2.20;99.90
44513;DHT22;30219;50.588;9.504;2023-02-13T07:44:48;2.20;99.90
44513;DHT22;30219;50.588;9.504;2023-02-13T07:47:14;2.30;99.90
44513;DHT22;30219;50.588;9.504;2023-02-13T07:49:39;2.40;99.90
44513;DHT22;30219;50.588;9.504;2023-02-13T07:52:05;2.50;99.90
44513;DHT22;30219;50.588;9.504;2023-02-13T07:54:30;2.60;99.90
44513;DHT22;30219;50.588;9.504;2023-02-13T07:56:56;2.70;99.90
44513;DHT22;30219;50.588;9.504;2023-02-13T07:59:22;2.80;99.90
44513;DHT22;30219;50.588;9.504;2023-02-13T08:01:47;2.80;99.90
44513;DHT22;30219;50.588;9.504;2023-02-13T08:04:13;3.00;99.90
44513;DHT22;30219;50.588;9.504;2023-02-13T08:06:39;3.10;99.90
44513;DHT22;30219;50.588;9.504;2023-02-13T08:09:04;3.20;99.90
44513;DHT22;30219;50.588;9.504;2023-02-13T08:11:48;3.30;99.90
44513;DHT22;30219;50.588;9.504;2023-02-13T08:14:21;3.50;99.90
44513;DHT22;30219;50.588;9.504;2023-02-13T08:16:46;3.70;99.90
44513;DHT22;30219;50.588;9.504;2023-02-13T08:19:12;3.80;99.90
44513;DHT22;30219;50.588;9.504;2023-02-13T08:21:37;3.90;99.90
44513;DHT22;30219;50.588;9.504;2023-02-13T08:24:05;4.00;99.90
44513;DHT22;30219;50.588;9.504;2023-02-13T08:26:31;4.20;99.90
44513;DHT22;30219;50.588;9.504;2023-02-13T08:28:56;4.30;99.90
44513;DHT22;30219;50.588;9.504;2023-02-13T08:31:22;4.40;99.90
44513;DHT22;30219;50.588;9.504;2023-02-13T08:33:47;4.70;99.90
44513;DHT22;30219;50.588;9.504;2023-02-13T08:36:13;4.90;99.90
44513;DHT22;30219;50.588;9.504;2023-02-13T08:38:38;5.00;99.90
44513;DHT22;30219;50.588;9.504;2023-02-13T08:41:04;5.10;99.90
44513;DHT22;30219;50.588;9.504;2023-02-13T08:43:29;5.00;99.90
44513;DHT22;30219;50.588;9.504;2023-02-13T08:45:58;5.00;99.90
44513;DHT22;30219;50.588;9.504;2023-02-13T08:48:24;4.90;99.90
44513;DHT22;30219;50.588;9.504;2023-02-13T08:50:49;4.80;99.90
44513;DHT22;30219;50.588;9.504;2023-02-13T08:53:15;5.00;99.90
44513;DHT22;30219;50.588;9.504;2023-02-13T08:55:40;5.40;99.90
44513;DHT22;30219;50.588;9.504;2023-02-13T08:58:06;5.80;99.90
44513;DHT22;30219;50.588;9.504;2023-02-13T09:00:31;6.30;99.90
44513;DHT22;30219;50.588;9.504;2023-02-13T09:03:00;6.80;99.90
44513;DHT22;30219;50.588;9.504;2023-02-13T09:05:27;7.40;99.90
44513;DHT22;30219;50.588;9.504;2023-02-13T09:07:52;8.00;99.90
44513;DHT22;30219;50.588;9.504;2023-02-13T09:10:18;8.60;99.90
44513;DHT22;30219;50.588;9.504;2023-02-13T09:12:43;8.70;99.90
44513;DHT22;30219;50.588;9.504;2023-02-13T09:15:09;9.20;99.90
44513;DHT22;30219;50.588;9.504;2023-02-13T09:17:34;9.90;99.90
44513;DHT22;30219;50.588;9.504;2023-02-13T09:20:00;10.40;99.90
44513;DHT22;30219;50.588;9.504;2023-02-13T09:22:25;10.60;99.90
44513;DHT22;30219;50.588;9.504;2023-02-13T09:24:50;10.70;99.90
44513;DHT22;30219;50.588;9.504;2023-02-13T09:27:16;10.90;99.90
44513;DHT22;30219;50.588;9.504;2023-02-13T09:29:42;10.90;99.90
44513;DHT22;30219;50.588;9.504;2023-02-13T09:32:07;11.20;99.90
44513;DHT22;30219;50.588;9.504;2023-02-13T09:34:32;11.50;99.90
44513;DHT22;30219;50.588;9.504;2023-02-13T09:36:58;11.90;99.90
44513;DHT22;30219;50.588;9.504;2023-02-13T09:39:23;11.70;99.90
44513;DHT22;30219;50.588;9.504;2023-02-13T09:41:49;11.90;99.90
44513;DHT22;30219;50.588;9.504;2023-02-13T09:44:30;12.30;99.90
44513;DHT22;30219;50.588;9.504;2023-02-13T09:47:03;12.50;99.90
44513;DHT22;30219;50.588;9.504;2023-02-13T09:49:32;12.70;99.90
44513;DHT22;30219;50.588;9.504;2023-02-13T09:51:58;12.80;99.90
44513;DHT22;30219;50.588;9.504;2023-02-13T09:54:23;12.80;99.90
44513;DHT22;30219;50.588;9.504;2023-02-13T09:56:54;13.30;99.90
44513;DHT22;30219;50.588;9.504;2023-02-13T10:01:53;13.00;99.90
44513;DHT22;30219;50.588;9.504;2023-02-13T10:06:54;13.40;99.90
44513;DHT22;30219;50.588;9.504;2023-02-13T10:09:38;13.80;99.90
44513;DHT22;30219;50.588;9.504;2023-02-13T10:12:21;14.20;99.90
44513;DHT22;30219;50.588;9.504;2023-02-13T10:14:58;14.20;99.90
44513;DHT22;30219;50.588;9.504;2023-02-13T10:17:34;14.30;99.90
44513;DHT22;30219;50.588;9.504;2023-02-13T10:20:06;14.80;99.90
44513;DHT22;30219;50.588;9.504;2023-02-13T10:22:33;15.30;99.90
44513;DHT22;30219;50.588;9.504;2023-02-13T10:27:33;15.40;99.90
44513;DHT22;30219;50.588;9.504;2023-02-13T10:32:35;15.60;99.60
44513;DHT22;30219;50.588;9.504;2023-02-13T10:35:01;15.60;99.80
44513;DHT22;30219;50.588;9.504;2023-02-13T10:37:27;15.20;99.80
44513;DHT22;30219;50.588;9.504;2023-02-13T10:39:53;14.00;99.90
44513;DHT22;30219;50.588;9.504;2023-02-13T10:52:38;13.30;99.90
44513;DHT22;30219;50.588;9.504;2023-02-13T10:55:12;13.20;99.90
44513;DHT22;30219;50.588;9.504;2023-02-13T10:57:51;12.90;99.90
44513;DHT22;30219;50.588;9.504;2023-02-13T11:00:34;12.90;99.90
44513;DHT22;30219;50.588;9.504;2023-02-13T11:03:01;12.20;99.90
44513;DHT22;30219;50.588;9.504;2023-02-13T11:05:30;12.10;99.90
44513;DHT22;30219;50.588;9.504;2023-02-13T11:07:56;12.20;99.90
44513;DHT22;30219;50.588;9.504;2023-02-13T11:10:24;12.00;99.90
44513;DHT22;30219;50.588;9.504;2023-02-13T11:12:50;11.70;99.90
44513;DHT22;30219;50.588;9.504;2023-02-13T11:15:26;11.90;99.90
44513;DHT22;30219;50.588;9.504;2023-02-13T11:17:59;12.00;99.90
44513;DHT22;30219;50.588;9.504;2023-02-13T11:20:36;12.30;99.90
44513;DHT22;30219;50.588;9.504;2023-02-13T11:25:54;12.20;99.90
44513;DHT22;30219;50.588;9.504;2023-02-13T11:28:20;12.10;99.90
44513;DHT22;30219;50.588;9.504;2023-02-13T11:30:46;12.10;99.90
44513;DHT22;30219;50.588;9.504;2023-02-13T11:35:42;12.40;99.90
44513;DHT22;30219;50.588;9.504;2023-02-13T11:40:40;12.70;99.90
44513;DHT22;30219;50.588;9.504;2023-02-13T11:43:06;12.70;99.90
44513;DHT22;30219;50.588;9.504;2023-02-13T11:45:32;12.40;99.90
44513;DHT22;30219;50.588;9.504;2023-02-13T11:47:58;12.40;99.90
44513;DHT22;30219;50.588;9.504;2023-02-13T11:50:28;12.60;99.90
44513;DHT22;30219;50.588;9.504;2023-02-13T11:52:55;12.70;99.90
44513;DHT22;30219;50.588;9.504;2023-02-13T11:55:25;12.60;99.90
44513;DHT22;30219;50.588;9.504;2023-02-13T11:57:55;12.60;99.90
44513;DHT22;30219;50.588;9.504;2023-02-13T12:00:28;12.90;99.90
44513;DHT22;30219;50.588;9.504;2023-02-13T12:03:02;12.60;99.90
44513;DHT22;30219;50.588;9.504;2023-02-13T12:05:27;12.40;99.90
44513;DHT22;30219;50.588;9.504;2023-02-13T12:07:54;12.30;99.90
44513;DHT22;30219;50.588;9.504;2023-02-13T12:10:22;12.30;99.90
44513;DHT22;30219;50.588;9.504;2023-02-13T12:15:21;12.30;99.90
44513;DHT22;30219;50.588;9.504;2023-02-13T12:17:56;12.30;99.90
44513;DHT22;30219;50.588;9.504;2023-02-13T12:20:24;12.40;99.90
44513;DHT22;30219;50.588;9.504;2023-02-13T12:30:35;12.40;99.90
44513;DHT22;30219;50.588;9.504;2023-02-13T12:38:44;12.30;99.90
44513;DHT22;30219;50.588;9.504;2023-02-13T12:41:27;12.10;99.90
44513;DHT22;30219;50.588;9.504;2023-02-13T12:46:13;11.80;99.90
44513;DHT22;30219;50.588;9.504;2023-02-13T12:49:16;12.00;99.90
44513;DHT22;30219;50.588;9.504;2023-02-13T12:51:47;12.50;99.90
44513;DHT22;30219;50.588;9.504;2023-02-13T13:02:02;12.60;99.90
44513;DHT22;30219;50.588;9.504;2023-02-13T13:07:10;12.60;99.90
44513;DHT22;30219;50.588;9.504;2023-02-13T13:12:24;12.30;99.90
44513;DHT22;30219;50.588;9.504;2023-02-13T13:22:34;12.00;99.90
44513;DHT22;30219;50.588;9.504;2023-02-13T13:25:14;12.00;99.90
44513;DHT22;30219;50.588;9.504;2023-02-13T13:27:43;11.80;99.90
44513;DHT22;30219;50.588;9.504;2023-02-13T13:30:19;11.80;99.90
44513;DHT22;30219;50.588;9.504;2023-02-13T13:32:51;12.00;99.90
44513;DHT22;30219;50.588;9.504;2023-02-13T13:35:18;12.30;99.90
44513;DHT22;30219;50.588;9.504;2023-02-13T13:37:55;12.20;99.90
44513;DHT22;30219;50.588;9.504;2023-02-13T13:43:03;12.40;99.90
44513;DHT22;30219;50.588;9.504;2023-02-13T13:50:29;12.00;99.90
44513;DHT22;30219;50.588;9.504;2023-02-13T13:53:06;11.80;99.90
44513;DHT22;30219;50.588;9.504;2023-02-13T13:55:57;11.80;99.90
44513;DHT22;30219;50.588;9.504;2023-02-13T13:58:23;11.80;99.90
44513;DHT22;30219;50.588;9.504;2023-02-13T14:03:34;11.70;99.90
44513;DHT22;30219;50.588;9.504;2023-02-13T14:06:02;11.60;99.90
44513;DHT22;30219;50.588;9.504;2023-02-13T14:09:34;11.60;99.90
44513;DHT22;30219;50.588;9.504;2023-02-13T14:11:25;11.70;99.90
44513;DHT22;30219;50.588;9.504;2023-02-13T14:13:51;11.50;99.90
44513;DHT22;30219;50.588;9.504;2023-02-13T14:19:02;11.40;99.90
44513;DHT22;30219;50.588;9.504;2023-02-13T14:21:28;11.30;99.90
44513;DHT22;30219;50.588;9.504;2023-02-13T14:23:53;11.50;99.90
44513;DHT22;30219;50.588;9.504;2023-02-13T14:26:29;11.40;99.90
44513;DHT22;30219;50.588;9.504;2023-02-13T14:28:57;11.50;99.90
44513;DHT22;30219;50.588;9.504;2023-02-13T14:31:35;11.60;99.90
44513;DHT22;30219;50.588;9.504;2023-02-13T14:36:46;11.40;99.90
44513;DHT22;30219;50.588;9.504;2023-02-13T14:39:26;11.20;99.90
44513;DHT22;30219;50.588;9.504;2023-02-13T14:44:25;11.10;99.90
44513;DHT22;30219;50.588;9.504;2023-02-13T14:46:51;11.30;99.90
44513;DHT22;30219;50.588;9.504;2023-02-13T14:49:24;11.30;99.90
44513;DHT22;30219;50.588;9.504;2023-02-13T14:56:45;11.00;99.90
44513;DHT22;30219;50.588;9.504;2023-02-13T15:01:45;10.90;99.90
44513;DHT22;30219;50.588;9.504;2023-02-13T15:04:16;10.80;99.90
44513;DHT22;30219;50.588;9.504;2023-02-13T15:06:43;10.70;99.90
44513;DHT22;30219;50.588;9.504;2023-02-13T15:12:22;10.60;99.90
44513;DHT22;30219;50.588;9.504;2023-02-13T15:14:48;10.70;99.90
44513;DHT22;30219;50.588;9.504;2023-02-13T15:17:14;10.50;99.90
44513;DHT22;30219;50.588;9.504;2023-02-13T15:19:45;10.50;99.90
44513;DHT22;30219;50.588;9.504;2023-02-13T15:22:24;10.50;99.90
44513;DHT22;30219;50.588;9.504;2023-02-13T15:24:51;10.60;99.90
44513;DHT22;30219;50.588;9.504;2023-02-13T15:27:18;10.50;99.90
44513;DHT22;30219;50.588;9.504;2023-02-13T15:32:19;10.30;99.90
44513;DHT22;30219;50.588;9.504;2023-02-13T15:34:45;10.30;99.90
44513;DHT22;30219;50.588;9.504;2023-02-13T15:37:21;10.30;99.90
44513;DHT22;30219;50.588;9.504;2023-02-13T15:39:47;10.10;99.90
44513;DHT22;30219;50.588;9.504;2023-02-13T15:42:12;10.00;99.90
44513;DHT22;30219;50.588;9.504;2023-02-13T15:44:38;9.90;99.90
44513;DHT22;30219;50.588;9.504;2023-02-13T15:47:07;10.00;99.90
44513;DHT22;30219;50.588;9.504;2023-02-13T15:49:38;9.90;99.90
44513;DHT22;30219;50.588;9.504;2023-02-13T15:52:07;10.00;99.90
44513;DHT22;30219;50.588;9.504;2023-02-13T15:54:33;9.90;99.90
44513;DHT22;30219;50.588;9.504;2023-02-13T15:57:01;9.80;99.90
44513;DHT22;30219;50.588;9.504;2023-02-13T15:59:29;9.70;99.90
44513;DHT22;30219;50.588;9.504;2023-02-13T16:01:56;9.50;99.90
44513;DHT22;30219;50.588;9.504;2023-02-13T16:04:22;9.30;99.90
44513;DHT22;30219;50.588;9.504;2023-02-13T16:06:49;9.20;99.90
44513;DHT22;30219;50.588;9.504;2023-02-13T16:09:31;9.20;99.90
44513;DHT22;30219;50.588;9.504;2023-02-13T16:14:26;9.10;99.90
44513;DHT22;30219;50.588;9.504;2023-02-13T16:17:02;8.90;99.90
44513;DHT22;30219;50.588;9.504;2023-02-13T16:20:14;8.80;99.90
44513;DHT22;30219;50.588;9.504;2023-02-13T16:22:20;8.70;99.90
44513;DHT22;30219;50.588;9.504;2023-02-13T16:24:51;8.50;99.90
44513;DHT22;30219;50.588;9.504;2023-02-13T16:27:19;8.40;99.90
44513;DHT22;30219;50.588;9.504;2023-02-13T16:29:56;8.40;99.90
44513;DHT22;30219;50.588;9.504;2023-02-13T16:32:26;8.30;99.90
44513;DHT22;30219;50.588;9.504;2023-02-13T16:34:52;8.30;99.90
44513;DHT22;30219;50.588;9.504;2023-02-13T16:37:29;8.10;99.90
44513;DHT22;30219;50.588;9.504;2023-02-13T16:39:55;8.10;99.90
44513;DHT22;30219;50.588;9.504;2023-02-13T16:42:20;8.00;99.90
44513;DHT22;30219;50.588;9.504;2023-02-13T16:44:46;8.00;99.90
44513;DHT22;30219;50.588;9.504;2023-02-13T16:47:22;7.90;99.90
44513;DHT22;30219;50.588;9.504;2023-02-13T16:49:55;7.90;99.90
44513;DHT22;30219;50.588;9.504;2023-02-13T16:52:22;7.80;99.90
44513;DHT22;30219;50.588;9.504;2023-02-13T16:54:57;7.80;99.90
44513;DHT22;30219;50.588;9.504;2023-02-13T16:57:27;7.80;99.90
44513;DHT22;30219;50.588;9.504;2023-02-13T17:02:27;7.70;99.90
44513;DHT22;30219;50.588;9.504;2023-02-13T17:04:54;7.70;99.90
44513;DHT22;30219;50.588;9.504;2023-02-13T17:07:21;7.70;99.90
44513;DHT22;30219;50.588;9.504;2023-02-13T17:09:50;7.70;99.90
44513;DHT22;30219;50.588;9.504;2023-02-13T17:12:17;7.70;99.90
44513;DHT22;30219;50.588;9.504;2023-02-13T17:14:42;7.60;99.90
44513;DHT22;30219;50.588;9.504;2023-02-13T17:17:09;7.70;99.90
44513;DHT22;30219;50.588;9.504;2023-02-13T17:19:35;7.60;99.90
44513;DHT22;30219;50.588;9.504;2023-02-13T17:22:01;7.50;99.90
44513;DHT22;30219;50.588;9.504;2023-02-13T17:24:26;7.40;99.90
44513;DHT22;30219;50.588;9.504;2023-02-13T17:26:52;7.20;99.90
44513;DHT22;30219;50.588;9.504;2023-02-13T17:29:17;7.20;99.90
44513;DHT22;30219;50.588;9.504;2023-02-13T17:31:43;7.10;99.90
44513;DHT22;30219;50.588;9.504;2023-02-13T17:34:09;7.00;99.90
44513;DHT22;30219;50.588;9.504;2023-02-13T17:36:35;6.70;99.90
44513;DHT22;30219;50.588;9.504;2023-02-13T17:39:00;6.50;99.90
44513;DHT22;30219;50.588;9.504;2023-02-13T17:41:26;6.30;99.90
44513;DHT22;30219;50.588;9.504;2023-02-13T17:43:51;6.40;99.90
44513;DHT22;30219;50.588;9.504;2023-02-13T17:46:17;6.20;99.90
44513;DHT22;30219;50.588;9.504;2023-02-13T17:48:42;6.00;99.90
44513;DHT22;30219;50.588;9.504;2023-02-13T17:51:09;5.90;99.90
44513;DHT22;30219;50.588;9.504;2023-02-13T17:53:36;5.80;99.90
44513;DHT22;30219;50.588;9.504;2023-02-13T17:56:02;5.80;99.90
44513;DHT22;30219;50.588;9.504;2023-02-13T17:58:27;5.70;99.90
44513;DHT22;30219;50.588;9.504;2023-02-13T18:00:53;5.90;99.90
44513;DHT22;30219;50.588;9.504;2023-02-13T18:03:18;5.90;99.90
44513;DHT22;30219;50.588;9.504;2023-02-13T18:05:45;5.90;99.90
44513;DHT22;30219;50.588;9.504;2023-02-13T18:08:12;5.90;99.90
44513;DHT22;30219;50.588;9.504;2023-02-13T18:10:37;6.10;99.90
44513;DHT22;30219;50.588;9.504;2023-02-13T18:13:03;6.10;99.90
44513;DHT22;30219;50.588;9.504;2023-02-13T18:15:47;6.10;99.90
44513;DHT22;30219;50.588;9.504;2023-02-13T18:18:14;6.00;99.90
44513;DHT22;30219;50.588;9.504;2023-02-13T18:20:40;5.80;99.90
44513;DHT22;30219;50.588;9.504;2023-02-13T18:23:05;5.80;99.90
44513;DHT22;30219;50.588;9.504;2023-02-13T18:25:31;5.60;99.90
44513;DHT22;30219;50.588;9.504;2023-02-13T18:27:57;5.50;99.90
44513;DHT22;30219;50.588;9.504;2023-02-13T18:30:22;5.40;99.90